sensor_id;sensor_type;location;lat;lon;timestamp;P1;durP1;ratioP1;P2;durP2;ratioP2
81336;SDS011;70799;48.000;10.584;2024-03-25T00:05:07;3.97;;;1.15;;
81336;SDS011;70799;48.000;10.584;2024-03-25T02:37:09;3.78;;;1.58;;
81336;SDS011;70799;48.000;10.584;2024-03-25T05:13:37;4.22;;;1.80;;
81336;SDS011;70799;48.000;10.584;2024-03-25T05:16:09;2.83;;;1.58;;
81336;SDS011;70799;48.000;10.584;2024-03-25T05:32:10;6.28;;;1.80;;
81336;SDS011;70799;48.000;10.584;2024-03-25T06:01:51;2.95;;;1.70;;
81336;SDS011;70799;48.000;10.584;2024-03-25T06:08:48;3.88;;;1.60;;
81336;SDS011;70799;48.000;10.584;2024-03-25T06:32:35;4.47;;;1.30;;
81336;SDS011;70799;48.000;10.584;2024-03-25T06:35:22;4.72;;;1.17;;
81336;SDS011;70799;48.000;10.584;2024-03-25T06:37:55;4.10;;;1.08;;
81336;SDS011;70799;48.000;10.584;2024-03-25T06:40:27;3.80;;;1.23;;
81336;SDS011;70799;48.000;10.584;2024-03-25T06:42:59;3.20;;;1.30;;
81336;SDS011;70799;48.000;10.584;2024-03-25T06:45:34;2.53;;;0.93;;
81336;SDS011;70799;48.000;10.584;2024-03-25T06:48:06;3.95;;;1.20;;
81336;SDS011;70799;48.000;10.584;2024-03-25T06:50:38;4.18;;;1.02;;
81336;SDS011;70799;48.000;10.584;2024-03-25T06:53:11;3.20;;;1.27;;
81336;SDS011;70799;48.000;10.584;2024-03-25T06:55:50;4.05;;;1.25;;
81336;SDS011;70799;48.000;10.584;2024-03-25T06:58:26;2.35;;;1.15;;
81336;SDS011;70799;48.000;10.584;2024-03-25T07:01:03;3.00;;;1.20;;
81336;SDS011;70799;48.000;10.584;2024-03-25T07:03:36;3.03;;;1.10;;
81336;SDS011;70799;48.000;10.584;2024-03-25T07:06:09;4.03;;;1.88;;
81336;SDS011;70799;48.000;10.584;2024-03-25T07:08:41;6.63;;;1.40;;
81336;SDS011;70799;48.000;10.584;2024-03-25T07:11:14;3.17;;;1.13;;
81336;SDS011;70799;48.000;10.584;2024-03-25T07:13:46;3.90;;;1.42;;
81336;SDS011;70799;48.000;10.584;2024-03-25T07:16:18;4.88;;;1.40;;
81336;SDS011;70799;48.000;10.584;2024-03-25T07:18:51;3.75;;;1.17;;
81336;SDS011;70799;48.000;10.584;2024-03-25T07:21:23;4.85;;;1.23;;
81336;SDS011;70799;48.000;10.584;2024-03-25T07:23:55;3.30;;;1.42;;
81336;SDS011;70799;48.000;10.584;2024-03-25T07:26:28;4.15;;;1.02;;
81336;SDS011;70799;48.000;10.584;2024-03-25T07:29:00;4.10;;;1.05;;
81336;SDS011;70799;48.000;10.584;2024-03-25T07:31:33;5.68;;;1.42;;
81336;SDS011;70799;48.000;10.584;2024-03-25T07:34:05;3.40;;;1.13;;
81336;SDS011;70799;48.000;10.584;2024-03-25T07:36:38;3.88;;;1.00;;
81336;SDS011;70799;48.000;10.584;2024-03-25T07:39:10;2.25;;;0.90;;
81336;SDS011;70799;48.000;10.584;2024-03-25T07:41:42;4.65;;;1.05;;
81336;SDS011;70799;48.000;10.584;2024-03-25T07:44:15;3.45;;;1.10;;
81336;SDS011;70799;48.000;10.584;2024-03-25T07:46:47;3.05;;;1.13;;
81336;SDS011;70799;48.000;10.584;2024-03-25T07:49:19;4.32;;;1.10;;
81336;SDS011;70799;48.000;10.584;2024-03-25T07:51:52;2.80;;;0.90;;
81336;SDS011;70799;48.000;10.584;2024-03-25T07:54:24;3.05;;;1.30;;
81336;SDS011;70799;48.000;10.584;2024-03-25T07:56:56;4.47;;;1.42;;
81336;SDS011;70799;48.000;10.584;2024-03-25T07:59:29;4.65;;;1.17;;
81336;SDS011;70799;48.000;10.584;2024-03-25T08:08:56;3.47;;;0.73;;
81336;SDS011;70799;48.000;10.584;2024-03-25T08:11:29;2.90;;;0.80;;
81336;SDS011;70799;48.000;10.584;2024-03-25T08:14:01;2.45;;;1.00;;
81336;SDS011;70799;48.000;10.584;2024-03-25T08:16:33;3.10;;;0.90;;
81336;SDS011;70799;48.000;10.584;2024-03-25T08:19:05;1.75;;;0.95;;
81336;SDS011;70799;48.000;10.584;2024-03-25T08:21:38;2.05;;;0.80;;
81336;SDS011;70799;48.000;10.584;2024-03-25T08:24:10;4.18;;;1.10;;
81336;SDS011;70799;48.000;10.584;2024-03-25T08:26:44;2.72;;;0.90;;
81336;SDS011;70799;48.000;10.584;2024-03-25T08:29:17;3.17;;;0.73;;
81336;SDS011;70799;48.000;10.584;2024-03-25T08:31:49;3.78;;;1.00;;
81336;SDS011;70799;48.000;10.584;2024-03-25T08:34:21;2.22;;;0.93;;
81336;SDS011;70799;48.000;10.584;2024-03-25T08:36:54;6.10;;;1.00;;
81336;SDS011;70799;48.000;10.584;2024-03-25T08:39:26;2.83;;;1.00;;
81336;SDS011;70799;48.000;10.584;2024-03-25T08:41:59;2.13;;;0.90;;
81336;SDS011;70799;48.000;10.584;2024-03-25T08:44:33;5.93;;;1.00;;
81336;SDS011;70799;48.000;10.584;2024-03-25T08:47:05;3.28;;;0.63;;
81336;SDS011;70799;48.000;10.584;2024-03-25T08:49:38;4.28;;;1.25;;
81336;SDS011;70799;48.000;10.584;2024-03-25T08:52:10;3.08;;;0.98;;
81336;SDS011;70799;48.000;10.584;2024-03-25T08:54:42;5.30;;;1.00;;
81336;SDS011;70799;48.000;10.584;2024-03-25T08:57:15;6.93;;;2.67;;
81336;SDS011;70799;48.000;10.584;2024-03-25T08:59:47;3.70;;;1.77;;
81336;SDS011;70799;48.000;10.584;2024-03-25T09:02:19;3.15;;;0.98;;
81336;SDS011;70799;48.000;10.584;2024-03-25T09:04:52;1.98;;;0.77;;
81336;SDS011;70799;48.000;10.584;2024-03-25T09:07:24;4.20;;;0.80;;
81336;SDS011;70799;48.000;10.584;2024-03-25T09:09:56;1.63;;;0.77;;
81336;SDS011;70799;48.000;10.584;2024-03-25T09:12:44;2.65;;;0.80;;
81336;SDS011;70799;48.000;10.584;2024-03-25T09:15:16;1.80;;;0.70;;
81336;SDS011;70799;48.000;10.584;2024-03-25T09:17:48;2.47;;;0.80;;
81336;SDS011;70799;48.000;10.584;2024-03-25T09:20:21;3.22;;;0.63;;
81336;SDS011;70799;48.000;10.584;2024-03-25T09:22:53;2.45;;;0.70;;
81336;SDS011;70799;48.000;10.584;2024-03-25T09:25:25;2.30;;;0.70;;
81336;SDS011;70799;48.000;10.584;2024-03-25T09:27:58;2.65;;;0.70;;
81336;SDS011;70799;48.000;10.584;2024-03-25T09:30:30;4.88;;;1.20;;
81336;SDS011;70799;48.000;10.584;2024-03-25T09:33:02;1.33;;;0.65;;
81336;SDS011;70799;48.000;10.584;2024-03-25T09:35:35;2.60;;;0.75;;
81336;SDS011;70799;48.000;10.584;2024-03-25T09:38:08;2.03;;;0.68;;
81336;SDS011;70799;48.000;10.584;2024-03-25T09:40:40;1.02;;;0.50;;
81336;SDS011;70799;48.000;10.584;2024-03-25T09:43:14;2.97;;;0.82;;
81336;SDS011;70799;48.000;10.584;2024-03-25T09:45:53;3.03;;;1.10;;
81336;SDS011;70799;48.000;10.584;2024-03-25T09:48:26;1.92;;;0.80;;
81336;SDS011;70799;48.000;10.584;2024-03-25T09:50:59;1.70;;;0.70;;
81336;SDS011;70799;48.000;10.584;2024-03-25T09:53:33;2.83;;;0.70;;
81336;SDS011;70799;48.000;10.584;2024-03-25T09:56:05;3.33;;;0.85;;
81336;SDS011;70799;48.000;10.584;2024-03-25T09:58:38;2.95;;;1.02;;
81336;SDS011;70799;48.000;10.584;2024-03-25T10:01:11;2.40;;;1.08;;
81336;SDS011;70799;48.000;10.584;2024-03-25T10:03:43;3.20;;;0.70;;
81336;SDS011;70799;48.000;10.584;2024-03-25T10:06:15;1.63;;;0.68;;
81336;SDS011;70799;48.000;10.584;2024-03-25T10:08:47;1.73;;;0.52;;
81336;SDS011;70799;48.000;10.584;2024-03-25T10:11:20;2.80;;;1.25;;
81336;SDS011;70799;48.000;10.584;2024-03-25T10:13:53;1.73;;;0.70;;
81336;SDS011;70799;48.000;10.584;2024-03-25T10:16:26;2.25;;;0.90;;
81336;SDS011;70799;48.000;10.584;2024-03-25T10:18:58;3.65;;;0.85;;
81336;SDS011;70799;48.000;10.584;2024-03-25T10:21:34;3.08;;;1.15;;
81336;SDS011;70799;48.000;10.584;2024-03-25T10:24:06;2.38;;;0.70;;
81336;SDS011;70799;48.000;10.584;2024-03-25T10:26:39;2.35;;;0.50;;
81336;SDS011;70799;48.000;10.584;2024-03-25T10:29:11;1.10;;;0.60;;
81336;SDS011;70799;48.000;10.584;2024-03-25T10:31:43;2.40;;;0.77;;
81336;SDS011;70799;48.000;10.584;2024-03-25T10:34:15;1.67;;;0.65;;
81336;SDS011;70799;48.000;10.584;2024-03-25T10:36:48;2.70;;;0.75;;
81336;SDS011;70799;48.000;10.584;2024-03-25T10:39:20;1.60;;;0.70;;
81336;SDS011;70799;48.000;10.584;2024-03-25T10:41:57;1.58;;;0.60;;
81336;SDS011;70799;48.000;10.584;2024-03-25T10:44:32;2.05;;;0.75;;
81336;SDS011;70799;48.000;10.584;2024-03-25T10:47:05;1.88;;;0.63;;
81336;SDS011;70799;48.000;10.584;2024-03-25T10:52:20;2.55;;;0.60;;
81336;SDS011;70799;48.000;10.584;2024-03-25T10:54:53;4.35;;;0.75;;
81336;SDS011;70799;48.000;10.584;2024-03-25T10:57:26;2.08;;;0.60;;
81336;SDS011;70799;48.000;10.584;2024-03-25T11:00:00;2.63;;;0.70;;
81336;SDS011;70799;48.000;10.584;2024-03-25T11:02:34;2.08;;;0.50;;
81336;SDS011;70799;48.000;10.584;2024-03-25T11:05:07;2.30;;;0.90;;
81336;SDS011;70799;48.000;10.584;2024-03-25T11:07:40;2.53;;;0.65;;
81336;SDS011;70799;48.000;10.584;2024-03-25T11:10:12;1.52;;;0.73;;
81336;SDS011;70799;48.000;10.584;2024-03-25T11:12:45;2.40;;;0.82;;
81336;SDS011;70799;48.000;10.584;2024-03-25T11:15:21;2.03;;;0.60;;
81336;SDS011;70799;48.000;10.584;2024-03-25T11:17:54;2.47;;;0.68;;
81336;SDS011;70799;48.000;10.584;2024-03-25T11:20:30;4.10;;;1.00;;
81336;SDS011;70799;48.000;10.584;2024-03-25T11:23:13;1.60;;;0.70;;
81336;SDS011;70799;48.000;10.584;2024-03-25T11:25:54;2.72;;;1.33;;
81336;SDS011;70799;48.000;10.584;2024-03-25T11:28:27;1.45;;;0.52;;
81336;SDS011;70799;48.000;10.584;2024-03-25T11:31:00;2.38;;;0.60;;
81336;SDS011;70799;48.000;10.584;2024-03-25T11:33:36;1.48;;;0.90;;
81336;SDS011;70799;48.000;10.584;2024-03-25T11:36:12;1.55;;;0.70;;
81336;SDS011;70799;48.000;10.584;2024-03-25T11:38:45;2.85;;;0.75;;
81336;SDS011;70799;48.000;10.584;2024-03-25T11:41:18;1.88;;;0.80;;
81336;SDS011;70799;48.000;10.584;2024-03-25T11:43:50;1.70;;;0.80;;
81336;SDS011;70799;48.000;10.584;2024-03-25T11:46:26;1.95;;;0.85;;
81336;SDS011;70799;48.000;10.584;2024-03-25T11:48:59;1.60;;;0.52;;
81336;SDS011;70799;48.000;10.584;2024-03-25T11:51:34;2.28;;;0.50;;
81336;SDS011;70799;48.000;10.584;2024-03-25T11:54:07;1.20;;;0.68;;
81336;SDS011;70799;48.000;10.584;2024-03-25T11:56:42;1.15;;;0.60;;
81336;SDS011;70799;48.000;10.584;2024-03-25T11:59:14;1.88;;;0.60;;
81336;SDS011;70799;48.000;10.584;2024-03-25T12:01:46;1.75;;;0.52;;
81336;SDS011;70799;48.000;10.584;2024-03-25T12:04:19;2.35;;;1.33;;
81336;SDS011;70799;48.000;10.584;2024-03-25T12:06:54;1.95;;;0.68;;
81336;SDS011;70799;48.000;10.584;2024-03-25T12:09:26;2.28;;;0.70;;
81336;SDS011;70799;48.000;10.584;2024-03-25T12:12:14;4.88;;;0.60;;
81336;SDS011;70799;48.000;10.584;2024-03-25T12:14:46;2.25;;;0.68;;
81336;SDS011;70799;48.000;10.584;2024-03-25T12:17:18;2.10;;;0.60;;
81336;SDS011;70799;48.000;10.584;2024-03-25T12:22:38;1.30;;;0.70;;
81336;SDS011;70799;48.000;10.584;2024-03-25T12:25:11;1.55;;;0.80;;
81336;SDS011;70799;48.000;10.584;2024-03-25T12:27:45;2.40;;;0.60;;
81336;SDS011;70799;48.000;10.584;2024-03-25T12:30:19;2.55;;;0.50;;
81336;SDS011;70799;48.000;10.584;2024-03-25T12:32:51;2.00;;;0.90;;
81336;SDS011;70799;48.000;10.584;2024-03-25T12:35:23;2.55;;;0.63;;
81336;SDS011;70799;48.000;10.584;2024-03-25T12:37:55;2.47;;;0.73;;
81336;SDS011;70799;48.000;10.584;2024-03-25T12:40:28;1.35;;;0.75;;
81336;SDS011;70799;48.000;10.584;2024-03-25T12:43:01;1.60;;;0.50;;
81336;SDS011;70799;48.000;10.584;2024-03-25T12:45:33;1.83;;;0.50;;
81336;SDS011;70799;48.000;10.584;2024-03-25T12:48:06;1.45;;;0.40;;
81336;SDS011;70799;48.000;10.584;2024-03-25T12:50:38;1.60;;;0.60;;
81336;SDS011;70799;48.000;10.584;2024-03-25T12:53:16;1.38;;;0.50;;
81336;SDS011;70799;48.000;10.584;2024-03-25T12:55:49;1.05;;;0.60;;
81336;SDS011;70799;48.000;10.584;2024-03-25T12:58:21;0.80;;;0.32;;
81336;SDS011;70799;48.000;10.584;2024-03-25T13:00:53;1.98;;;0.90;;
81336;SDS011;70799;48.000;10.584;2024-03-25T13:03:26;1.52;;;0.70;;
81336;SDS011;70799;48.000;10.584;2024-03-25T13:05:58;1.17;;;0.50;;
81336;SDS011;70799;48.000;10.584;2024-03-25T13:08:32;1.35;;;0.40;;
81336;SDS011;70799;48.000;10.584;2024-03-25T13:11:05;1.83;;;0.68;;
81336;SDS011;70799;48.000;10.584;2024-03-25T13:13:37;1.30;;;0.40;;
81336;SDS011;70799;48.000;10.584;2024-03-25T13:16:10;2.95;;;0.65;;
81336;SDS011;70799;48.000;10.584;2024-03-25T13:18:42;1.30;;;0.60;;
81336;SDS011;70799;48.000;10.584;2024-03-25T13:21:14;1.80;;;0.40;;
81336;SDS011;70799;48.000;10.584;2024-03-25T13:23:46;1.30;;;0.50;;
81336;SDS011;70799;48.000;10.584;2024-03-25T13:26:19;1.60;;;0.52;;
81336;SDS011;70799;48.000;10.584;2024-03-25T13:28:51;1.83;;;0.60;;
81336;SDS011;70799;48.000;10.584;2024-03-25T13:31:25;1.92;;;0.50;;
81336;SDS011;70799;48.000;10.584;2024-03-25T13:33:57;0.95;;;0.50;;
81336;SDS011;70799;48.000;10.584;2024-03-25T13:36:30;1.20;;;0.40;;
81336;SDS011;70799;48.000;10.584;2024-03-25T13:39:03;1.33;;;0.40;;
81336;SDS011;70799;48.000;10.584;2024-03-25T13:41:35;1.92;;;0.85;;
81336;SDS011;70799;48.000;10.584;2024-03-25T13:44:07;0.93;;;0.50;;
81336;SDS011;70799;48.000;10.584;2024-03-25T13:46:40;1.15;;;0.50;;
81336;SDS011;70799;48.000;10.584;2024-03-25T13:49:12;2.42;;;0.50;;
81336;SDS011;70799;48.000;10.584;2024-03-25T13:51:44;1.98;;;0.60;;
81336;SDS011;70799;48.000;10.584;2024-03-25T13:54:17;1.77;;;0.82;;
81336;SDS011;70799;48.000;10.584;2024-03-25T13:56:49;2.10;;;0.50;;
81336;SDS011;70799;48.000;10.584;2024-03-25T13:59:21;2.38;;;0.70;;
81336;SDS011;70799;48.000;10.584;2024-03-25T14:01:54;1.90;;;0.60;;
81336;SDS011;70799;48.000;10.584;2024-03-25T14:04:26;2.05;;;0.32;;
81336;SDS011;70799;48.000;10.584;2024-03-25T14:06:58;4.07;;;0.95;;
81336;SDS011;70799;48.000;10.584;2024-03-25T14:09:34;1.98;;;0.50;;
81336;SDS011;70799;48.000;10.584;2024-03-25T14:12:06;1.92;;;0.50;;
81336;SDS011;70799;48.000;10.584;2024-03-25T14:14:39;1.50;;;0.40;;
81336;SDS011;70799;48.000;10.584;2024-03-25T14:17:11;1.38;;;0.73;;
81336;SDS011;70799;48.000;10.584;2024-03-25T14:19:43;1.98;;;0.50;;
81336;SDS011;70799;48.000;10.584;2024-03-25T14:22:16;1.67;;;0.50;;
81336;SDS011;70799;48.000;10.584;2024-03-25T14:24:48;0.95;;;0.47;;
81336;SDS011;70799;48.000;10.584;2024-03-25T14:27:22;1.08;;;0.40;;
81336;SDS011;70799;48.000;10.584;2024-03-25T14:29:54;1.08;;;0.43;;
81336;SDS011;70799;48.000;10.584;2024-03-25T14:32:27;2.63;;;0.30;;
81336;SDS011;70799;48.000;10.584;2024-03-25T14:34:59;0.63;;;0.30;;
81336;SDS011;70799;48.000;10.584;2024-03-25T14:37:34;1.13;;;0.40;;
81336;SDS011;70799;48.000;10.584;2024-03-25T14:40:06;0.95;;;0.38;;
81336;SDS011;70799;48.000;10.584;2024-03-25T14:42:39;1.95;;;0.30;;
81336;SDS011;70799;48.000;10.584;2024-03-25T14:45:12;2.60;;;0.50;;
81336;SDS011;70799;48.000;10.584;2024-03-25T14:47:44;1.52;;;0.32;;
81336;SDS011;70799;48.000;10.584;2024-03-25T14:50:16;1.25;;;0.60;;
81336;SDS011;70799;48.000;10.584;2024-03-25T14:52:49;1.40;;;0.43;;
81336;SDS011;70799;48.000;10.584;2024-03-25T14:55:21;0.90;;;0.75;;
81336;SDS011;70799;48.000;10.584;2024-03-25T14:57:54;1.60;;;0.50;;
81336;SDS011;70799;48.000;10.584;2024-03-25T15:00:26;0.82;;;0.20;;
81336;SDS011;70799;48.000;10.584;2024-03-25T15:02:58;1.77;;;0.30;;
81336;SDS011;70799;48.000;10.584;2024-03-25T15:05:33;2.65;;;0.45;;
81336;SDS011;70799;48.000;10.584;2024-03-25T15:08:05;1.10;;;0.40;;
81336;SDS011;70799;48.000;10.584;2024-03-25T15:10:38;1.33;;;0.40;;
81336;SDS011;70799;48.000;10.584;2024-03-25T15:13:12;1.77;;;0.40;;
81336;SDS011;70799;48.000;10.584;2024-03-25T15:15:44;1.85;;;0.43;;
81336;SDS011;70799;48.000;10.584;2024-03-25T15:18:17;2.63;;;0.60;;
81336;SDS011;70799;48.000;10.584;2024-03-25T15:21:00;1.25;;;0.30;;
81336;SDS011;70799;48.000;10.584;2024-03-25T15:23:35;0.73;;;0.30;;
81336;SDS011;70799;48.000;10.584;2024-03-25T15:26:08;1.17;;;0.20;;
81336;SDS011;70799;48.000;10.584;2024-03-25T15:28:40;0.90;;;0.38;;
81336;SDS011;70799;48.000;10.584;2024-03-25T15:31:12;1.45;;;0.47;;
81336;SDS011;70799;48.000;10.584;2024-03-25T15:33:45;1.50;;;0.40;;
81336;SDS011;70799;48.000;10.584;2024-03-25T15:36:17;0.52;;;0.30;;
81336;SDS011;70799;48.000;10.584;2024-03-25T15:38:50;0.93;;;0.32;;
81336;SDS011;70799;48.000;10.584;2024-03-25T15:41:22;1.25;;;0.50;;
81336;SDS011;70799;48.000;10.584;2024-03-25T15:43:54;0.90;;;0.30;;
81336;SDS011;70799;48.000;10.584;2024-03-25T15:46:27;2.00;;;0.40;;
81336;SDS011;70799;48.000;10.584;2024-03-25T15:48:59;1.40;;;0.22;;
81336;SDS011;70799;48.000;10.584;2024-03-25T15:51:34;1.40;;;0.50;;
81336;SDS011;70799;48.000;10.584;2024-03-25T15:54:06;1.15;;;0.22;;
81336;SDS011;70799;48.000;10.584;2024-03-25T15:56:39;1.63;;;0.30;;
81336;SDS011;70799;48.000;10.584;2024-03-25T15:59:11;2.03;;;0.43;;
81336;SDS011;70799;48.000;10.584;2024-03-25T16:01:44;0.57;;;0.40;;
81336;SDS011;70799;48.000;10.584;2024-03-25T16:04:16;1.27;;;0.30;;
81336;SDS011;70799;48.000;10.584;2024-03-25T16:06:49;1.95;;;0.50;;
81336;SDS011;70799;48.000;10.584;2024-03-25T16:09:21;0.55;;;0.20;;
81336;SDS011;70799;48.000;10.584;2024-03-25T16:11:57;0.85;;;0.30;;
81336;SDS011;70799;48.000;10.584;2024-03-25T16:14:34;1.50;;;0.30;;
81336;SDS011;70799;48.000;10.584;2024-03-25T16:17:09;0.73;;;0.25;;
81336;SDS011;70799;48.000;10.584;2024-03-25T16:19:42;0.65;;;0.30;;
81336;SDS011;70799;48.000;10.584;2024-03-25T16:22:17;1.17;;;0.30;;
81336;SDS011;70799;48.000;10.584;2024-03-25T16:24:50;1.65;;;0.28;;
81336;SDS011;70799;48.000;10.584;2024-03-25T16:27:25;1.15;;;0.47;;
81336;SDS011;70799;48.000;10.584;2024-03-25T16:30:01;0.88;;;0.30;;
81336;SDS011;70799;48.000;10.584;2024-03-25T16:32:34;0.88;;;0.30;;
81336;SDS011;70799;48.000;10.584;2024-03-25T16:35:07;1.55;;;0.95;;
81336;SDS011;70799;48.000;10.584;2024-03-25T16:37:40;1.80;;;0.40;;
81336;SDS011;70799;48.000;10.584;2024-03-25T16:40:13;1.50;;;0.20;;
81336;SDS011;70799;48.000;10.584;2024-03-25T16:42:45;0.50;;;0.22;;
81336;SDS011;70799;48.000;10.584;2024-03-25T16:45:20;1.13;;;0.40;;
81336;SDS011;70799;48.000;10.584;2024-03-25T16:47:52;0.60;;;0.30;;
81336;SDS011;70799;48.000;10.584;2024-03-25T16:50:24;0.60;;;0.30;;
81336;SDS011;70799;48.000;10.584;2024-03-25T16:52:57;1.20;;;0.60;;
81336;SDS011;70799;48.000;10.584;2024-03-25T16:55:30;1.48;;;0.70;;
81336;SDS011;70799;48.000;10.584;2024-03-25T16:58:02;0.77;;;0.43;;
81336;SDS011;70799;48.000;10.584;2024-03-25T17:00:34;1.02;;;0.30;;
81336;SDS011;70799;48.000;10.584;2024-03-25T17:03:08;0.65;;;0.30;;
81336;SDS011;70799;48.000;10.584;2024-03-25T17:05:42;1.02;;;0.50;;
81336;SDS011;70799;48.000;10.584;2024-03-25T17:08:14;0.47;;;0.20;;
81336;SDS011;70799;48.000;10.584;2024-03-25T17:10:47;0.88;;;0.45;;
81336;SDS011;70799;48.000;10.584;2024-03-25T17:13:20;1.58;;;0.35;;
81336;SDS011;70799;48.000;10.584;2024-03-25T17:15:53;1.35;;;0.60;;
81336;SDS011;70799;48.000;10.584;2024-03-25T17:18:25;2.00;;;0.50;;
81336;SDS011;70799;48.000;10.584;2024-03-25T17:20:58;1.30;;;0.38;;
81336;SDS011;70799;48.000;10.584;2024-03-25T17:23:34;3.45;;;0.70;;
81336;SDS011;70799;48.000;10.584;2024-03-25T17:26:09;2.00;;;0.45;;
81336;SDS011;70799;48.000;10.584;2024-03-25T17:28:42;1.48;;;0.43;;
81336;SDS011;70799;48.000;10.584;2024-03-25T17:31:15;2.58;;;0.57;;
81336;SDS011;70799;48.000;10.584;2024-03-25T17:33:47;1.85;;;0.68;;
81336;SDS011;70799;48.000;10.584;2024-03-25T17:36:20;3.63;;;0.82;;
81336;SDS011;70799;48.000;10.584;2024-03-25T17:38:54;3.90;;;0.85;;
81336;SDS011;70799;48.000;10.584;2024-03-25T17:41:28;1.98;;;0.80;;
81336;SDS011;70799;48.000;10.584;2024-03-25T17:44:02;2.78;;;0.70;;
81336;SDS011;70799;48.000;10.584;2024-03-25T17:46:34;3.22;;;1.10;;
81336;SDS011;70799;48.000;10.584;2024-03-25T17:49:06;5.47;;;1.90;;
81336;SDS011;70799;48.000;10.584;2024-03-25T17:51:39;2.83;;;1.42;;
81336;SDS011;70799;48.000;10.584;2024-03-25T17:54:11;2.53;;;0.95;;
81336;SDS011;70799;48.000;10.584;2024-03-25T17:56:44;3.10;;;0.95;;
81336;SDS011;70799;48.000;10.584;2024-03-25T17:59:17;2.95;;;1.02;;
81336;SDS011;70799;48.000;10.584;2024-03-25T18:01:49;3.75;;;1.10;;
81336;SDS011;70799;48.000;10.584;2024-03-25T18:04:22;5.68;;;1.40;;
81336;SDS011;70799;48.000;10.584;2024-03-25T18:06:54;4.20;;;1.15;;
81336;SDS011;70799;48.000;10.584;2024-03-25T18:09:26;3.38;;;1.65;;
81336;SDS011;70799;48.000;10.584;2024-03-25T18:12:00;2.67;;;1.30;;
81336;SDS011;70799;48.000;10.584;2024-03-25T18:14:35;4.63;;;1.13;;
81336;SDS011;70799;48.000;10.584;2024-03-25T18:17:08;4.60;;;1.27;;
81336;SDS011;70799;48.000;10.584;2024-03-25T18:19:40;5.40;;;1.75;;
81336;SDS011;70799;48.000;10.584;2024-03-25T18:22:12;5.82;;;1.50;;
81336;SDS011;70799;48.000;10.584;2024-03-25T18:24:45;4.50;;;1.83;;
81336;SDS011;70799;48.000;10.584;2024-03-25T18:27:17;4.57;;;1.63;;
81336;SDS011;70799;48.000;10.584;2024-03-25T18:29:49;3.63;;;1.23;;
81336;SDS011;70799;48.000;10.584;2024-03-25T18:32:21;3.97;;;1.60;;
81336;SDS011;70799;48.000;10.584;2024-03-25T18:34:54;5.00;;;1.67;;
81336;SDS011;70799;48.000;10.584;2024-03-25T18:45:46;2.88;;;1.48;;
81336;SDS011;70799;48.000;10.584;2024-03-25T18:52:52;4.60;;;1.55;;
81336;SDS011;70799;48.000;10.584;2024-03-25T19:47:49;7.00;;;2.17;;
81336;SDS011;70799;48.000;10.584;2024-03-25T19:54:54;5.22;;;1.83;;
81336;SDS011;70799;48.000;10.584;2024-03-25T20:01:51;3.60;;;1.08;;
81336;SDS011;70799;48.000;10.584;2024-03-25T20:13:02;3.88;;;1.20;;
81336;SDS011;70799;48.000;10.584;2024-03-25T20:20:07;3.58;;;1.25;;
81336;SDS011;70799;48.000;10.584;2024-03-25T20:22:40;4.13;;;1.60;;
81336;SDS011;70799;48.000;10.584;2024-03-25T20:25:13;4.90;;;1.40;;
81336;SDS011;70799;48.000;10.584;2024-03-25T20:27:45;4.28;;;1.30;;
81336;SDS011;70799;48.000;10.584;2024-03-25T20:30:18;4.82;;;1.60;;
81336;SDS011;70799;48.000;10.584;2024-03-25T20:37:03;3.13;;;1.58;;
81336;SDS011;70799;48.000;10.584;2024-03-25T20:39:36;2.45;;;1.05;;
81336;SDS011;70799;48.000;10.584;2024-03-25T20:42:08;4.15;;;1.75;;
81336;SDS011;70799;48.000;10.584;2024-03-25T20:44:40;3.35;;;1.55;;
81336;SDS011;70799;48.000;10.584;2024-03-25T20:51:35;4.38;;;1.80;;
81336;SDS011;70799;48.000;10.584;2024-03-25T21:07:16;5.70;;;2.42;;
81336;SDS011;70799;48.000;10.584;2024-03-25T21:14:22;4.85;;;2.22;;
81336;SDS011;70799;48.000;10.584;2024-03-25T21:16:54;5.80;;;1.92;;
81336;SDS011;70799;48.000;10.584;2024-03-25T21:24:00;3.60;;;1.50;;
81336;SDS011;70799;48.000;10.584;2024-03-25T21:26:32;4.05;;;1.48;;
81336;SDS011;70799;48.000;10.584;2024-03-25T21:29:04;3.83;;;1.40;;
81336;SDS011;70799;48.000;10.584;2024-03-25T21:36:02;3.50;;;1.52;;
81336;SDS011;70799;48.000;10.584;2024-03-25T21:43:08;3.72;;;1.70;;
81336;SDS011;70799;48.000;10.584;2024-03-25T21:45:40;3.83;;;1.73;;
81336;SDS011;70799;48.000;10.584;2024-03-25T21:56:38;7.28;;;1.90;;
81336;SDS011;70799;48.000;10.584;2024-03-25T22:20:01;3.45;;;1.40;;
81336;SDS011;70799;48.000;10.584;2024-03-25T23:25:48;2.90;;;0.95;;
81336;SDS011;70799;48.000;10.584;2024-03-25T23:32:45;3.55;;;1.48;;
